Badalona, Spain
Current Conditions -  °F | °C
As of 6:30 AM on Sunday 21 Dec 2014 (Local Time) from LEBL Reporting Station
Clear Clear  
Wind Chill: 37°   Ceiling: Unl
Heat Index: 45°   Visibility: 6mi
Dew Point: 41°   Wind: 17mph
Humidity: 87%   Direction: 330°NNW
Pressure: 30.42"   Gusts: NA
Location:  41.45°N, 2.25°E
Report Text: LEBL 210530Z 33015KT CAVOK 07/05 Q1030 NOSIG
Loading
Personal Weather Stations






























Interactive Weather Map New forecast layout! Learn more

10-Day Weather Forecast

Advertisements
Track Severe Weather on mobile